Time;durP1;ratioP1;P1;durP2;ratioP2;P2;SDS_P1;SDS_P2;PMS_P1;PMS_P2;Temp;Humidity;BMP_temperature;BMP_pressure;BME280_temperature;BME280_humidity;BME280_pressure;Samples;Min_cycle;Max_cycle;Signal;HPM_P1;HPM_P2
2023/01/03 00:00:47;;;;;;;2.05;1.25;;;20.70;67.60;;;;;;5001728;27;92653;-84
2023/01/03 00:03:15;;;;;;;2.17;1.17;;;20.80;67.50;;;;;;5002024;27;93271;-85
2023/01/03 00:05:42;;;;;;;2.53;1.60;;;20.70;67.30;;;;;;5001640;27;93693;-87
2023/01/03 00:08:08;;;;;;;2.40;1.20;;;20.70;67.30;;;;;;5002470;28;92306;-86
2023/01/03 00:10:34;;;;;;;1.95;1.38;;;20.70;68.30;;;;;;5001918;27;93190;-86
2023/01/03 00:12:59;;;;;;;1.50;1.02;;;20.70;68.30;;;;;;5001838;27;93115;-84
2023/01/03 00:15:25;;;;;;;2.13;1.00;;;20.70;67.50;;;;;;5001298;27;92132;-86
2023/01/03 00:17:52;;;;;;;1.83;1.20;;;20.60;67.40;;;;;;5001973;27;92265;-82
2023/01/03 00:20:18;;;;;;;2.15;1.30;;;20.70;67.50;;;;;;5002165;28;93622;-82
2023/01/03 00:22:43;;;;;;;1.67;1.17;;;20.60;67.30;;;;;;5001192;27;92729;-85
2023/01/03 00:25:09;;;;;;;2.08;1.10;;;20.60;67.50;;;;;;5001783;27;92058;-84
2023/01/03 00:27:35;;;;;;;2.17;1.27;;;20.60;67.40;;;;;;5001387;27;92097;-84
2023/01/03 00:30:00;;;;;;;1.77;1.10;;;20.60;67.30;;;;;;5000577;27;93749;-82
2023/01/03 00:32:26;;;;;;;1.92;1.00;;;20.60;67.40;;;;;;5001340;27;93653;-83
2023/01/03 00:34:52;;;;;;;1.70;1.02;;;20.60;67.40;;;;;;5001666;28;92314;-83
2023/01/03 00:37:17;;;;;;;2.22;1.50;;;20.50;67.40;;;;;;5002310;27;92724;-82
2023/01/03 00:39:43;;;;;;;2.13;0.90;;;20.50;67.40;;;;;;5001790;27;93384;-85
2023/01/03 00:42:09;;;;;;;1.92;1.30;;;20.50;67.40;;;;;;5001723;27;92866;-82
2023/01/03 00:44:35;;;;;;;2.17;1.20;;;20.50;67.50;;;;;;5001409;27;92577;-83
2023/01/03 00:47:01;;;;;;;1.00;0.73;;;20.50;67.40;;;;;;5003319;28;91233;-84
2023/01/03 00:49:26;;;;;;;2.97;1.23;;;20.50;67.60;;;;;;5005194;27;93781;-84
2023/01/03 00:51:52;;;;;;;1.35;1.00;;;20.50;67.50;;;;;;5004478;27;93070;-84
2023/01/03 00:54:19;;;;;;;1.63;1.00;;;20.50;67.60;;;;;;5004807;27;93599;-83
2023/01/03 00:56:48;;;;;;;2.10;1.13;;;20.40;67.50;;;;;;5004936;27;93944;-82
2023/01/03 00:59:15;;;;;;;;;;;20.40;67.30;;;;;;5005728;28;93544;-84
2023/01/03 01:01:49;;;;;;;1.80;1.20;;;20.40;67.30;;;;;;5006536;27;92894;-85
2023/01/03 01:04:25;;;;;;;1.42;1.10;;;20.40;67.30;;;;;;5005017;27;92647;-84
2023/01/03 01:06:54;;;;;;;2.15;1.13;;;20.40;67.10;;;;;;5004957;27;92505;-83
2023/01/03 01:09:25;;;;;;;2.10;1.23;;;20.40;67.20;;;;;;5004157;27;93500;-84
2023/01/03 01:11:51;;;;;;;1.48;1.00;;;20.40;67.20;;;;;;5004956;27;93038;-82
2023/01/03 01:14:19;;;;;;;4.05;1.45;;;20.40;67.20;;;;;;5005934;28;92233;-85
2023/01/03 01:16:53;;;;;;;0.85;0.85;;;20.40;67.30;;;;;;5004714;27;92754;-85
2023/01/03 01:19:21;;;;;;;1.52;0.98;;;20.30;67.20;;;;;;5003859;27;95957;-83
2023/01/03 01:21:47;;;;;;;2.10;1.30;;;20.30;67.30;;;;;;5004208;27;94076;-82
2023/01/03 01:24:13;;;;;;;0.98;0.90;;;20.30;67.20;;;;;;5004484;27;92404;-83
2023/01/03 01:26:39;;;;;;;1.85;1.00;;;20.30;67.10;;;;;;5004388;27;92573;-82
2023/01/03 01:29:04;;;;;;;1.48;1.15;;;20.30;67.20;;;;;;5004440;28;92641;-82
2023/01/03 01:31:30;;;;;;;1.75;1.02;;;20.30;67.00;;;;;;5004238;27;92975;-83
2023/01/03 01:33:57;;;;;;;1.38;1.25;;;20.30;67.00;;;;;;5003928;27;92443;-85
2023/01/03 01:36:25;;;;;;;1.88;1.25;;;20.30;67.20;;;;;;5004771;27;91994;-86
2023/01/03 01:38:59;;;;;;;1.70;1.20;;;20.30;67.10;;;;;;5004464;27;93237;-84
2023/01/03 01:44:47;;;;;;;2.88;0.95;;;20.20;67.00;;;;;;5004486;28;93316;-81
2023/01/03 01:47:28;;;;;;;2.22;1.17;;;20.20;67.10;;;;;;5004783;28;92798;-83
2023/01/03 01:50:33;;;;;;;2.65;1.48;;;20.20;67.10;;;;;;5003983;28;97607;-83
2023/01/03 01:53:16;;;;;;;1.83;1.10;;;20.20;67.00;;;;;;4961265;28;97436;-83
2023/01/03 01:56:05;;;;;;;2.13;1.10;;;20.20;67.10;;;;;;4961850;28;92828;-82
2023/01/03 01:58:38;;;;;;;1.88;1.05;;;20.20;67.10;;;;;;4960324;28;92818;-82
2023/01/03 02:01:08;;;;;;;1.52;1.08;;;20.20;67.00;;;;;;4961034;28;93667;-84
2023/01/03 02:03:33;;;;;;;1.38;0.90;;;20.20;67.30;;;;;;4961231;28;93221;-84
2023/01/03 02:06:01;;;;;;;1.85;0.90;;;20.20;67.10;;;;;;4961270;28;92198;-85
2023/01/03 02:08:27;;;;;;;1.35;1.00;;;20.10;67.10;;;;;;4960984;28;92699;-84
2023/01/03 02:11:26;;;;;;;1.48;0.98;;;20.10;66.80;;;;;;4961014;28;94202;-82
2023/01/03 02:14:10;;;;;;;1.85;1.17;;;20.10;66.80;;;;;;4980452;28;98669;-82
2023/01/03 02:16:56;;;;;;;1.92;1.13;;;20.10;66.80;;;;;;4980238;28;93337;-83
2023/01/03 02:19:47;;;;;;;1.90;0.90;;;20.10;66.90;;;;;;4980646;28;93650;-82
2023/01/03 02:22:31;;;;;;;1.48;0.98;;;20.10;66.70;;;;;;4980419;28;94480;-84
2023/01/03 02:25:33;;;;;;;2.45;1.20;;;20.10;67.00;;;;;;4980159;28;92886;-82
2023/01/03 02:28:16;;;;;;;1.30;0.82;;;20.10;66.90;;;;;;4980835;28;92485;-81
2023/01/03 02:30:54;;;;;;;1.08;0.80;;;20.10;66.70;;;;;;4999782;27;91432;-83
2023/01/03 02:33:51;;;;;;;2.08;1.20;;;20.00;66.70;;;;;;5002877;27;93339;-84
2023/01/03 02:36:41;;;;;;;2.05;1.02;;;20.00;66.90;;;;;;4995356;28;93352;-84
2023/01/03 02:39:27;;;;;;;1.90;1.10;;;20.00;66.80;;;;;;4983140;27;93353;-84
2023/01/03 02:45:18;;;;;;;1.20;0.90;;;20.00;66.80;;;;;;4983390;28;92360;-83
2023/01/03 02:48:00;;;;;;;3.33;1.00;;;20.00;66.70;;;;;;4981982;28;96022;-84
2023/01/03 02:50:31;;;;;;;2.17;1.08;;;20.00;66.60;;;;;;4982410;28;92147;-83
2023/01/03 02:53:02;;;;;;;1.17;1.00;;;20.00;66.70;;;;;;4983560;28;92502;-85
2023/01/03 02:55:30;;;;;;;1.48;1.00;;;20.00;66.50;;;;;;4983209;28;93344;-83
2023/01/03 02:58:11;;;;;;;1.33;1.00;;;20.00;66.50;;;;;;4982439;28;93139;-84
2023/01/03 03:00:42;;;;;;;2.40;1.00;;;20.00;67.30;;;;;;4983092;28;92342;-83
2023/01/03 03:03:13;;;;;;;1.15;0.95;;;20.00;66.50;;;;;;4982719;28;92561;-83
2023/01/03 03:05:48;;;;;;;1.45;1.00;;;20.00;66.60;;;;;;4980234;28;98137;-84
2023/01/03 03:08:14;;;;;;;0.90;0.77;;;20.00;66.50;;;;;;4983483;28;93213;-84
2023/01/03 03:13:37;;;;;;;0.90;0.80;;;20.00;66.50;;;;;;4982105;28;92658;-84
2023/01/03 03:16:46;;;;;;;1.00;0.88;;;19.90;66.50;;;;;;4982715;28;94228;-84
2023/01/03 03:25:25;;;;;;;1.73;0.95;;;19.90;66.50;;;;;;4982125;28;91879;-84
2023/01/03 03:30:46;;;;;;;1.08;0.88;;;19.90;66.40;;;;;;4982997;28;92529;-84
2023/01/03 03:33:14;;;;;;;1.08;0.98;;;19.90;66.60;;;;;;4982512;28;93333;-83
2023/01/03 03:35:50;;;;;;;0.88;0.80;;;19.90;66.40;;;;;;4982304;28;92424;-84
2023/01/03 03:38:24;;;;;;;1.92;1.10;;;19.90;66.60;;;;;;4982531;28;93126;-83
2023/01/03 03:46:48;;;;;;;1.42;0.80;;;19.80;66.40;;;;;;4982044;28;92381;-84
2023/01/03 03:52:09;;;;;;;1.75;0.98;;;19.80;66.40;;;;;;4982178;28;92018;-83
2023/01/03 03:54:37;;;;;;;1.38;1.00;;;19.80;66.70;;;;;;4982239;28;92391;-84
2023/01/03 03:57:31;;;;;;;1.00;0.90;;;19.80;66.50;;;;;;4973818;28;92595;-82
2023/01/03 04:00:03;;;;;;;1.48;0.90;;;19.90;66.30;;;;;;4948579;28;95183;-84
2023/01/03 04:02:31;;;;;;;1.45;0.90;;;19.80;66.40;;;;;;4947723;28;97394;-85
2023/01/03 04:04:59;;;;;;;1.30;0.90;;;19.80;66.40;;;;;;4948235;28;92760;-80
2023/01/03 04:07:25;;;;;;;1.25;0.90;;;19.80;66.60;;;;;;4951693;28;92304;-81
2023/01/03 04:09:51;;;;;;;1.42;1.00;;;19.80;66.50;;;;;;4951425;28;92966;-82
2023/01/03 04:12:16;;;;;;;1.10;0.80;;;19.80;66.20;;;;;;4948168;28;92844;-82
2023/01/03 04:14:42;;;;;;;1.10;0.80;;;19.80;66.40;;;;;;4948345;28;92622;-82
2023/01/03 04:17:07;;;;;;;1.10;0.82;;;19.70;66.30;;;;;;4950703;28;91584;-84
2023/01/03 04:19:33;;;;;;;1.40;0.85;;;19.80;66.50;;;;;;4946209;28;93482;-83
2023/01/03 04:21:59;;;;;;;1.40;1.00;;;19.70;66.40;;;;;;4949167;28;93324;-81
2023/01/03 04:24:24;;;;;;;0.80;0.70;;;19.70;66.30;;;;;;4947477;28;93572;-81
2023/01/03 04:26:50;;;;;;;1.10;0.90;;;19.70;66.30;;;;;;4947932;28;92516;-83
2023/01/03 04:29:15;;;;;;;1.10;0.80;;;19.70;66.40;;;;;;4948830;28;92627;-82
2023/01/03 04:31:41;;;;;;;1.50;0.90;;;19.70;66.50;;;;;;4948894;28;92791;-85
2023/01/03 04:34:07;;;;;;;1.55;1.10;;;19.70;66.40;;;;;;4947475;28;92640;-81
2023/01/03 04:36:32;;;;;;;1.60;0.90;;;19.70;66.40;;;;;;4961115;28;92765;-82
2023/01/03 04:38:58;;;;;;;1.10;0.80;;;19.60;66.50;;;;;;4981567;28;93434;-81
2023/01/03 04:41:23;;;;;;;1.13;0.90;;;19.60;66.50;;;;;;4981883;28;93565;-82
2023/01/03 04:44:00;;;;;;;1.15;0.90;;;19.70;66.30;;;;;;4982109;28;92712;-84
2023/01/03 04:46:28;;;;;;;1.63;0.88;;;19.70;66.50;;;;;;4980838;28;92229;-84
2023/01/03 04:48:54;;;;;;;2.42;1.05;;;19.60;66.40;;;;;;4980974;28;94302;-85
2023/01/03 04:51:19;;;;;;;1.55;0.95;;;19.60;66.50;;;;;;4981299;28;93700;-86
2023/01/03 04:53:45;;;;;;;1.13;0.82;;;19.60;66.50;;;;;;4981587;28;92617;-86
2023/01/03 04:56:11;;;;;;;1.38;0.88;;;19.60;66.40;;;;;;4982204;28;92470;-83
2023/01/03 04:58:36;;;;;;;1.35;0.85;;;19.70;66.50;;;;;;4980050;28;93091;-86
2023/01/03 05:01:06;;;;;;;1.48;0.90;;;19.60;66.20;;;;;;4981289;28;92978;-84
2023/01/03 05:03:33;;;;;;;1.15;0.90;;;19.60;66.20;;;;;;4980746;28;92052;-86
2023/01/03 05:06:05;;;;;;;1.30;1.05;;;19.60;66.50;;;;;;5011915;28;92585;-85
2023/01/03 05:08:30;;;;;;;1.10;0.80;;;19.60;66.30;;;;;;4980797;28;92570;-84
2023/01/03 05:10:56;;;;;;;1.08;0.80;;;19.60;66.40;;;;;;4981653;28;93035;-87
2023/01/03 05:13:22;;;;;;;1.58;1.13;;;19.60;66.30;;;;;;4980740;28;94666;-85
2023/01/03 05:15:47;;;;;;;1.55;0.93;;;19.60;66.50;;;;;;4981048;28;92724;-86
2023/01/03 05:18:13;;;;;;;0.95;0.75;;;19.60;66.50;;;;;;4980565;28;93596;-86
2023/01/03 05:26:15;;;;;;;1.27;1.00;;;19.50;66.30;;;;;;4981511;28;92596;-84
2023/01/03 05:28:43;;;;;;;1.27;0.80;;;19.50;66.40;;;;;;4980485;28;92767;-86
2023/01/03 05:31:09;;;;;;;2.00;0.97;;;19.50;66.40;;;;;;4981664;28;92645;-86
2023/01/03 05:33:39;;;;;;;1.65;0.88;;;19.50;66.60;;;;;;4981536;28;92417;-85
2023/01/03 05:36:06;;;;;;;1.05;0.82;;;19.50;66.40;;;;;;4983767;28;92675;-84
2023/01/03 05:38:32;;;;;;;1.05;0.80;;;19.50;66.70;;;;;;4975356;28;93731;-86
2023/01/03 05:40:58;;;;;;;1.25;0.80;;;19.50;66.50;;;;;;4998380;28;93367;-86
2023/01/03 05:43:23;;;;;;;1.05;0.80;;;19.40;66.60;;;;;;4984476;28;93549;-86
2023/01/03 05:45:51;;;;;;;1.55;0.80;;;19.40;66.50;;;;;;4983980;28;92634;-85
2023/01/03 05:48:17;;;;;;;1.38;0.90;;;19.50;66.70;;;;;;4983800;28;92997;-84
2023/01/03 05:50:43;;;;;;;0.75;0.70;;;19.40;66.60;;;;;;4984321;28;92812;-82
2023/01/03 05:53:08;;;;;;;1.38;0.90;;;19.40;66.50;;;;;;4985053;28;92291;-83
2023/01/03 05:55:37;;;;;;;1.98;1.20;;;19.40;66.60;;;;;;4984325;28;91782;-83
2023/01/03 05:58:04;;;;;;;1.20;0.90;;;19.40;66.30;;;;;;4983721;28;94426;-84
2023/01/03 06:00:30;;;;;;;1.13;0.90;;;19.40;66.30;;;;;;4984033;28;94017;-83
2023/01/03 06:02:55;;;;;;;0.93;0.80;;;19.40;66.40;;;;;;4983423;28;93257;-83
2023/01/03 06:05:21;;;;;;;3.15;0.82;;;19.40;66.30;;;;;;4986038;28;92102;-82
2023/01/03 06:07:47;;;;;;;0.85;0.70;;;19.60;65.50;;;;;;4984281;28;97790;-85
2023/01/03 06:10:12;;;;;;;1.08;0.90;;;19.70;65.60;;;;;;4984699;28;92598;-84
2023/01/03 06:12:38;;;;;;;2.83;0.70;;;19.70;65.60;;;;;;4984751;28;92330;-85
2023/01/03 06:15:05;;;;;;;1.05;0.95;;;19.80;65.10;;;;;;4984877;28;92292;-85
2023/01/03 06:20:15;;;;;;;1.00;0.70;;;19.90;64.90;;;;;;4984948;28;94454;-84
2023/01/03 06:22:40;;;;;;;1.10;1.00;;;19.90;65.00;;;;;;4984381;28;92466;-84
2023/01/03 06:25:06;;;;;;;1.50;0.82;;;19.90;65.10;;;;;;4983891;28;92227;-84
2023/01/03 06:27:32;;;;;;;3.83;0.80;;;20.00;64.80;;;;;;4983243;28;94257;-85
2023/01/03 06:29:58;;;;;;;2.10;1.00;;;20.00;64.70;;;;;;4984405;28;93126;-85
2023/01/03 06:32:24;;;;;;;2.50;1.00;;;20.00;64.70;;;;;;4984680;28;92376;-84
2023/01/03 06:34:50;;;;;;;0.70;0.63;;;20.00;64.50;;;;;;4983870;28;92420;-81
2023/01/03 06:37:16;;;;;;;1.45;0.90;;;20.10;64.50;;;;;;4982711;28;94098;-83
2023/01/03 06:39:42;;;;;;;0.90;0.80;;;20.10;64.30;;;;;;4984175;28;92991;-84
2023/01/03 06:42:41;;;;;;;1.08;0.98;;;20.20;64.30;;;;;;4980674;28;92476;-87
2023/01/03 06:53:18;;;;;;;1.10;0.65;;;20.80;63.80;;;;;;4944201;28;93161;-86
2023/01/03 06:55:45;;;;;;;1.92;0.77;;;20.90;63.80;;;;;;4941882;28;92688;-86
2023/01/03 06:58:12;;;;;;;4.45;0.93;;;20.90;64.90;;;;;;4941558;28;93464;-85
2023/01/03 07:00:40;;;;;;;1.45;1.10;;;21.00;63.90;;;;;;4952315;28;93057;-86
2023/01/03 07:03:06;;;;;;;2.47;1.30;;;21.00;63.70;;;;;;4960884;28;92757;-84
2023/01/03 07:05:32;;;;;;;5.78;1.10;;;21.00;63.70;;;;;;4962297;28;92434;-89
2023/01/03 07:07:58;;;;;;;3.42;2.05;;;21.00;64.10;;;;;;4959804;28;94094;-85
2023/01/03 07:10:24;;;;;;;10.52;2.10;;;21.10;63.40;;;;;;4960986;28;93773;-83
2023/01/03 07:15:34;;;;;;;9.85;2.78;;;21.00;63.60;;;;;;4960769;28;92614;-87
2023/01/03 07:18:00;;;;;;;13.35;3.63;;;21.10;62.90;;;;;;4959934;28;94637;-85
2023/01/03 07:20:25;;;;;;;7.57;2.85;;;21.10;63.10;;;;;;4958651;28;95871;-88
2023/01/03 07:22:57;;;;;;;11.20;2.92;;;21.00;63.10;;;;;;4994972;28;92289;-90
2023/01/03 07:25:23;;;;;;;9.13;2.80;;;21.10;63.40;;;;;;4985869;27;92525;-88
2023/01/03 07:27:55;;;;;;;14.60;3.20;;;21.00;63.80;;;;;;4981795;28;93456;-91
2023/01/03 07:30:21;;;;;;;14.70;3.55;;;21.00;64.10;;;;;;4983204;28;92779;-90
2023/01/03 07:32:47;;;;;;;13.07;3.10;;;21.00;64.20;;;;;;4983539;28;92813;-88
2023/01/03 07:35:18;;;;;;;14.82;3.45;;;21.00;64.30;;;;;;4985286;28;91738;-88
2023/01/03 07:37:44;;;;;;;9.15;3.10;;;21.10;64.30;;;;;;4980883;28;92589;-91
2023/01/03 07:40:10;;;;;;;13.30;3.35;;;21.10;64.30;;;;;;4986775;28;94868;-88
2023/01/03 07:45:20;;;;;;;12.98;2.92;;;21.30;64.40;;;;;;4983126;28;92512;-90
2023/01/03 07:47:46;;;;;;;13.18;3.95;;;21.30;63.90;;;;;;4982024;28;93560;-90
2023/01/03 07:50:12;;;;;;;11.18;3.00;;;21.40;63.80;;;;;;4984055;28;93744;-89
2023/01/03 07:52:37;;;;;;;12.88;3.58;;;21.40;63.70;;;;;;4990607;28;92210;-89
2023/01/03 07:55:12;;;;;;;11.60;3.42;;;21.50;64.00;;;;;;4983562;28;92593;-90
2023/01/03 07:57:38;;;;;;;12.65;3.03;;;21.50;64.10;;;;;;4982257;28;96441;-92
2023/01/03 08:00:07;;;;;;;14.25;3.72;;;21.50;64.20;;;;;;4983852;28;93330;-90
2023/01/03 08:02:34;;;;;;;15.25;4.15;;;21.50;64.20;;;;;;4983170;28;92029;-91
2023/01/03 08:05:00;;;;;;;13.93;3.33;;;21.50;64.70;;;;;;4984192;28;92400;-90
2023/01/03 08:07:31;;;;;;;13.98;3.70;;;21.50;64.60;;;;;;4984034;28;94216;-92
2023/01/03 08:15:26;;;;;;;14.77;3.90;;;21.40;65.00;;;;;;4982820;28;92157;-89
2023/01/03 08:17:51;;;;;;;10.68;3.08;;;21.50;65.20;;;;;;4968586;27;93036;-90
2023/01/03 08:20:17;;;;;;;12.52;3.80;;;21.50;65.20;;;;;;4984474;28;92775;-91
2023/01/03 08:22:42;;;;;;;12.65;3.22;;;21.60;65.20;;;;;;4983118;27;92377;-91
2023/01/03 08:25:08;;;;;;;13.98;3.08;;;21.60;65.00;;;;;;4998060;28;91547;-91
2023/01/03 08:27:34;;;;;;;9.77;3.28;;;21.70;64.80;;;;;;5003591;27;93639;-90
2023/01/03 08:29:59;;;;;;;8.52;2.60;;;21.90;64.50;;;;;;5016423;28;92915;-90
2023/01/03 08:32:26;;;;;;;10.05;3.15;;;21.90;64.40;;;;;;5003911;27;93809;-88
2023/01/03 08:34:53;;;;;;;13.07;3.05;;;22.00;64.20;;;;;;5008720;28;92303;-89
2023/01/03 08:37:19;;;;;;;14.20;2.83;;;22.00;64.10;;;;;;4995571;27;94393;-90
2023/01/03 08:39:51;;;;;;;10.13;3.38;;;22.10;64.10;;;;;;5003225;27;92981;-89
2023/01/03 08:42:22;;;;;;;13.82;3.47;;;22.10;64.10;;;;;;5003240;27;92621;-89
2023/01/03 08:44:49;;;;;;;8.15;3.08;;;22.10;64.00;;;;;;5003327;27;92389;-90
2023/01/03 08:47:18;;;;;;;9.52;2.60;;;22.10;63.90;;;;;;5002582;28;93876;-90
2023/01/03 08:49:46;;;;;;;11.45;3.22;;;22.10;64.00;;;;;;5002081;27;93630;-89
2023/01/03 08:52:12;;;;;;;12.60;3.25;;;22.10;64.40;;;;;;5006408;27;92902;-90
2023/01/03 08:54:38;;;;;;;13.88;3.60;;;22.10;64.00;;;;;;5002025;27;92084;-88
2023/01/03 08:57:04;;;;;;;9.57;2.75;;;22.00;63.80;;;;;;5000481;27;94533;-91
2023/01/03 08:59:30;;;;;;;14.27;3.67;;;22.00;63.60;;;;;;5001781;27;93997;-88
2023/01/03 09:01:59;;;;;;;16.90;3.42;;;22.00;63.60;;;;;;5002838;28;92394;-88
2023/01/03 09:04:25;;;;;;;11.20;3.20;;;22.00;63.70;;;;;;5000658;27;92468;-90
2023/01/03 09:06:51;;;;;;;12.05;3.17;;;22.00;63.70;;;;;;5001421;27;92331;-88
2023/01/03 09:09:16;;;;;;;7.40;3.05;;;22.00;63.80;;;;;;5004492;27;93709;-89
2023/01/03 09:11:42;;;;;;;13.95;3.58;;;22.10;63.80;;;;;;5005152;27;92655;-92
2023/01/03 09:14:07;;;;;;;10.52;3.05;;;22.10;63.90;;;;;;5004232;28;91631;-90
2023/01/03 09:16:33;;;;;;;12.88;3.33;;;22.10;63.50;;;;;;5004781;27;92807;-92
2023/01/03 09:19:01;;;;;;;9.45;2.78;;;22.10;63.00;;;;;;5005065;27;94058;-89
2023/01/03 09:21:27;;;;;;;11.88;3.63;;;22.10;62.30;;;;;;5003918;28;93407;-90
2023/01/03 09:23:53;;;;;;;14.23;3.97;;;22.10;61.90;;;;;;5003877;27;92372;-89
2023/01/03 09:26:18;;;;;;;12.48;3.70;;;22.10;61.40;;;;;;5004325;28;93082;-90
2023/01/03 09:28:44;;;;;;;9.73;3.25;;;22.10;61.10;;;;;;5002973;27;93284;-88
2023/01/03 09:31:09;;;;;;;15.68;3.78;;;22.10;61.50;;;;;;5004789;27;92466;-89
2023/01/03 09:33:35;;;;;;;8.70;3.25;;;22.10;61.60;;;;;;5005018;27;92381;-91
2023/01/03 09:36:10;;;;;;;12.73;3.15;;;22.10;61.80;;;;;;5004388;27;93424;-90
2023/01/03 09:38:36;;;;;;;18.60;3.92;;;22.20;61.70;;;;;;5004835;27;92364;-90
2023/01/03 09:41:21;;;;;;;10.65;3.92;;;22.20;61.90;;;;;;5007822;28;92614;-91
2023/01/03 09:43:49;;;;;;;9.93;3.58;;;22.30;61.40;;;;;;5002672;27;92884;-91
2023/01/03 09:46:18;;;;;;;11.63;3.00;;;22.30;61.20;;;;;;5003135;27;94255;-91
2023/01/03 09:48:45;;;;;;;10.13;3.33;;;22.40;62.20;;;;;;5004201;27;93874;-90
2023/01/03 10:03:44;;;;;;;10.05;2.92;;;22.90;62.80;;;;;;4982854;28;92580;-88
2023/01/03 10:06:37;;;;;;;12.02;3.25;;;22.90;62.50;;;;;;4981890;28;92103;-90
2023/01/03 10:09:17;;;;;;;13.25;3.28;;;22.90;62.90;;;;;;4979133;28;92964;-89
2023/01/03 10:12:15;;;;;;;12.90;3.35;;;23.00;63.30;;;;;;4981413;28;93443;-88
2023/01/03 10:15:05;;;;;;;14.13;3.03;;;22.90;63.30;;;;;;4980091;28;93334;-91
2023/01/03 10:17:36;;;;;;;11.10;2.90;;;22.90;63.80;;;;;;4981721;28;92171;-90
2023/01/03 10:20:35;;;;;;;13.32;3.30;;;22.80;64.30;;;;;;4980864;28;94003;-90
2023/01/03 10:23:05;;;;;;;9.23;3.22;;;22.80;65.70;;;;;;4979054;28;97235;-90
2023/01/03 10:25:31;;;;;;;11.50;3.35;;;22.80;65.10;;;;;;4981144;28;92648;-89
2023/01/03 10:28:13;;;;;;;7.03;2.65;;;22.80;64.30;;;;;;4980295;28;92389;-89
2023/01/03 10:31:19;;;;;;;13.30;3.35;;;22.70;63.50;;;;;;4971157;28;94916;-89
2023/01/03 10:33:47;;;;;;;8.05;2.53;;;22.70;64.20;;;;;;4988292;28;95270;-90
2023/01/03 10:36:15;;;;;;;8.73;2.65;;;22.80;63.60;;;;;;4994956;27;92597;-90
2023/01/03 10:38:41;;;;;;;11.43;3.30;;;22.80;62.80;;;;;;5003459;27;92711;-91
2023/01/03 10:41:43;;;;;;;14.48;3.35;;;22.80;62.40;;;;;;5004598;28;94602;-90
2023/01/03 10:44:23;;;;;;;11.05;3.70;;;22.80;63.00;;;;;;4959065;28;98433;-89
2023/01/03 10:46:52;;;;;;;11.48;2.95;;;22.80;63.60;;;;;;4962313;28;92564;-90
2023/01/03 10:49:20;;;;;;;14.98;3.17;;;22.90;62.80;;;;;;4961785;28;92499;-90
2023/01/03 10:51:46;;;;;;;10.37;2.60;;;23.00;62.90;;;;;;4961199;28;93221;-90
2023/01/03 10:54:17;;;;;;;10.13;2.35;;;23.00;62.60;;;;;;4960413;28;92972;-89
2023/01/03 10:56:44;;;;;;;10.18;2.90;;;22.90;63.00;;;;;;4960308;28;92307;-89
2023/01/03 10:59:29;;;;;;;9.27;2.95;;;22.90;62.80;;;;;;4960645;28;92476;-89
2023/01/03 11:02:12;;;;;;;12.88;3.10;;;22.90;63.00;;;;;;4961112;28;97445;-92
2023/01/03 11:04:38;;;;;;;13.13;3.08;;;22.90;62.80;;;;;;4960967;28;94264;-90
2023/01/03 11:07:11;;;;;;;12.50;2.88;;;22.90;62.80;;;;;;4961582;28;93349;-90
2023/01/03 11:09:53;;;;;;;11.15;2.65;;;22.90;62.70;;;;;;4960786;28;92348;-90
2023/01/03 11:12:25;;;;;;;11.23;2.45;;;22.90;62.10;;;;;;4961053;28;92988;-90
2023/01/03 11:14:54;;;;;;;7.97;2.80;;;22.90;62.60;;;;;;4959099;28;93035;-89
2023/01/03 11:17:20;;;;;;;;;;;22.90;62.70;;;;;;4961934;28;92767;-89
2023/01/03 11:19:47;;;;;;;11.65;2.90;;;23.00;63.00;;;;;;4963333;28;92610;-88
2023/01/03 11:22:22;;;;;;;9.77;2.97;;;23.00;63.10;;;;;;4993924;27;93324;-89
2023/01/03 11:24:54;;;;;;;11.88;2.88;;;23.00;63.20;;;;;;5004290;27;92747;-91
2023/01/03 11:27:50;;;;;;;8.68;2.80;;;23.00;63.30;;;;;;5009195;27;92672;-91
2023/01/03 11:30:52;;;;;;;6.40;2.60;;;23.00;63.80;;;;;;5012690;27;92556;-89
2023/01/03 11:33:31;;;;;;;8.32;2.70;;;23.00;63.50;;;;;;5001285;27;94604;-88
2023/01/03 11:36:29;;;;;;;12.38;2.70;;;23.00;61.50;;;;;;5001638;28;93835;-87
2023/01/03 11:39:08;;;;;;;7.85;2.58;;;23.00;62.70;;;;;;5003279;27;92163;-84
2023/01/03 11:41:52;;;;;;;5.55;2.10;;;23.00;62.50;;;;;;5001817;27;92130;-83
2023/01/03 11:44:37;;;;;;;5.90;2.53;;;23.00;63.10;;;;;;5003425;28;93752;-84
2023/01/03 11:47:18;;;;;;;12.23;2.78;;;22.90;63.10;;;;;;4982414;28;97845;-84
2023/01/03 11:49:47;;;;;;;4.57;1.95;;;22.90;62.90;;;;;;5003501;28;92404;-82
2023/01/03 11:52:27;;;;;;;9.07;2.83;;;22.80;63.20;;;;;;5005368;27;91880;-85
2023/01/03 11:55:20;;;;;;;6.10;2.65;;;22.90;62.40;;;;;;5019531;27;94547;-84
2023/01/03 11:58:34;;;;;;;7.78;2.30;;;22.80;62.90;;;;;;5026249;27;92998;-84
2023/01/03 12:01:17;;;;;;;10.68;3.20;;;22.80;62.40;;;;;;4980304;28;93717;-83
2023/01/03 12:04:11;;;;;;;10.68;3.65;;;22.80;60.90;;;;;;4986855;28;92691;-84
2023/01/03 12:06:47;;;;;;;14.85;4.80;;;22.70;62.20;;;;;;4985038;28;93335;-85
2023/01/03 12:09:19;;;;;;;11.95;4.30;;;22.70;63.50;;;;;;4988555;28;92918;-86
2023/01/03 12:12:12;;;;;;;9.18;4.03;;;22.60;63.50;;;;;;4987757;28;92683;-89
2023/01/03 12:14:48;;;;;;;11.38;4.25;;;22.70;63.60;;;;;;4991029;28;92601;-87
2023/01/03 12:17:28;;;;;;;9.70;3.60;;;22.70;63.10;;;;;;4989469;28;92756;-88
2023/01/03 12:20:08;;;;;;;15.43;4.47;;;22.80;62.70;;;;;;4989324;28;97916;-87
2023/01/03 12:22:38;;;;;;;12.90;4.30;;;22.80;62.90;;;;;;4989050;28;92595;-86
2023/01/03 12:25:24;;;;;;;10.63;4.10;;;22.90;62.40;;;;;;4975668;28;92606;-87
2023/01/03 12:28:08;;;;;;;10.45;4.00;;;22.80;62.60;;;;;;4958887;28;95818;-85
2023/01/03 12:30:37;;;;;;;10.85;4.03;;;22.80;62.90;;;;;;4958676;28;95086;-86
2023/01/03 12:33:25;;;;;;;8.40;4.28;;;22.80;63.20;;;;;;4959589;28;92325;-89
2023/01/03 12:36:16;;;;;;;8.95;3.30;;;22.80;63.00;;;;;;4958852;28;92598;-87
2023/01/03 12:38:50;;;;;;;11.02;3.55;;;22.80;63.20;;;;;;4997860;27;93069;-88
2023/01/03 12:41:35;;;;;;;7.68;3.53;;;22.80;63.30;;;;;;5002517;28;93608;-88
2023/01/03 12:44:09;;;;;;;10.05;3.97;;;22.80;63.30;;;;;;5007294;28;92089;-89
2023/01/03 12:46:39;;;;;;;8.23;3.80;;;22.90;63.90;;;;;;5008952;27;91874;-87
2023/01/03 12:49:18;;;;;;;8.60;3.70;;;22.80;63.80;;;;;;5006871;27;92998;-88
2023/01/03 12:51:44;;;;;;;8.48;3.53;;;22.90;63.80;;;;;;5006176;27;93186;-86
2023/01/03 12:54:32;;;;;;;6.53;3.30;;;22.90;63.70;;;;;;5007372;27;93160;-88
2023/01/03 12:57:27;;;;;;;9.60;3.38;;;22.80;63.80;;;;;;5007262;27;92055;-89
2023/01/03 13:00:23;;;;;;;11.55;3.65;;;22.90;63.70;;;;;;5007593;27;93673;-88
2023/01/03 13:03:12;;;;;;;8.15;3.13;;;22.80;63.90;;;;;;5008696;27;93392;-86
2023/01/03 13:05:53;;;;;;;;;;;22.90;63.30;;;;;;5009457;27;92897;-87
2023/01/03 13:08:37;;;;;;;7.80;3.75;;;22.90;62.40;;;;;;5010307;28;93005;-88
2023/01/03 13:11:25;;;;;;;13.25;3.95;;;22.80;62.70;;;;;;4994533;28;98890;-89
2023/01/03 13:14:02;;;;;;;12.27;4.60;;;22.80;63.00;;;;;;5009347;28;97959;-87
2023/01/03 13:16:40;;;;;;;11.57;5.03;;;22.70;64.00;;;;;;5004930;27;92819;-87
2023/01/03 13:19:21;;;;;;;14.48;4.47;;;22.70;64.90;;;;;;5009087;27;92085;-87
2023/01/03 13:21:52;;;;;;;15.85;5.65;;;22.70;65.30;;;;;;5007322;27;94217;-88
2023/01/03 13:24:44;;;;;;;12.70;5.97;;;22.70;65.10;;;;;;4993556;27;95249;-86
2023/01/03 13:27:16;;;;;;;18.35;6.57;;;22.70;65.90;;;;;;4988649;27;92166;-87
2023/01/03 13:29:48;;;;;;;11.13;5.45;;;22.70;65.60;;;;;;4988634;27;92024;-86
2023/01/03 13:32:20;;;;;;;11.23;5.70;;;22.80;65.10;;;;;;4989223;28;94536;-87
2023/01/03 13:34:55;;;;;;;16.35;4.85;;;22.80;64.80;;;;;;4985873;27;92456;-88
2023/01/03 13:37:23;;;;;;;9.18;4.85;;;22.80;64.90;;;;;;4988631;28;92435;-87
2023/01/03 13:39:49;;;;;;;9.90;5.30;;;22.90;64.20;;;;;;4988949;28;91282;-86
2023/01/03 13:42:32;;;;;;;11.20;5.15;;;22.90;64.00;;;;;;4989401;28;93453;-88
2023/01/03 13:45:22;;;;;;;10.50;5.40;;;22.90;64.00;;;;;;4988413;28;93312;-88
2023/01/03 13:47:50;;;;;;;11.77;5.25;;;22.90;64.10;;;;;;4988521;28;93588;-87
2023/01/03 13:50:19;;;;;;;13.73;5.13;;;22.90;64.20;;;;;;4990209;28;92595;-88
2023/01/03 13:53:08;;;;;;;9.65;4.65;;;22.90;63.80;;;;;;4989960;28;93218;-86
2023/01/03 13:55:39;;;;;;;21.63;5.40;;;23.00;63.90;;;;;;4985041;28;92829;-86
2023/01/03 13:58:23;;;;;;;11.02;4.57;;;23.00;64.00;;;;;;4985651;28;92548;-87
2023/01/03 14:00:59;;;;;;;11.32;4.72;;;23.00;63.80;;;;;;4985880;28;92438;-87
2023/01/03 14:03:39;;;;;;;9.68;4.65;;;22.90;63.50;;;;;;4984901;28;93195;-87
2023/01/03 14:06:27;;;;;;;10.30;4.53;;;22.90;64.10;;;;;;4984793;28;92998;-88
2023/01/03 14:09:11;;;;;;;10.63;5.32;;;22.90;64.50;;;;;;4985340;28;92839;-87
2023/01/03 14:11:43;;;;;;;11.73;4.90;;;22.90;64.60;;;;;;4984071;28;92502;-85
2023/01/03 14:14:13;;;;;;;11.98;4.65;;;22.90;64.50;;;;;;4985336;28;95023;-87
2023/01/03 14:16:51;;;;;;;11.43;5.00;;;22.90;64.50;;;;;;4985471;28;93075;-86